createdAt,value
2018-05-19T00:00:39.511Z,11.99
2018-05-19T00:02:32.932Z,11.91
2018-05-19T00:03:32.934Z,11.83
2018-05-19T00:05:25.838Z,11.94
2018-05-19T00:06:25.857Z,11.86
2018-05-19T00:08:19.276Z,11.96
2018-05-19T00:09:19.286Z,11.90
2018-05-19T00:11:12.680Z,11.88
2018-05-19T00:12:12.697Z,11.85
2018-05-19T00:14:06.115Z,11.85
2018-05-19T00:15:06.120Z,11.83
2018-05-19T00:16:59.042Z,11.85
2018-05-19T00:17:59.043Z,11.82
2018-05-19T00:19:53.443Z,11.82
2018-05-19T00:21:02.082Z,11.85
2018-05-19T00:22:46.387Z,11.70
2018-05-19T00:23:46.387Z,11.76
2018-05-19T00:25:39.299Z,11.78
2018-05-19T00:26:39.319Z,11.75
2018-05-19T00:28:35.239Z,11.73
2018-05-19T00:29:35.240Z,11.75
2018-05-19T00:31:28.637Z,11.82
2018-05-19T00:32:28.659Z,11.70
2018-05-19T00:34:22.077Z,11.76
2018-05-19T00:35:22.079Z,11.72
2018-05-19T00:37:15.001Z,11.65
2018-05-19T00:38:15.003Z,11.62
2018-05-19T00:40:07.916Z,11.64
2018-05-19T00:41:07.921Z,11.58
2018-05-19T00:43:03.841Z,11.67
2018-05-19T00:44:03.843Z,11.70
2018-05-19T00:45:56.750Z,11.64
2018-05-19T00:46:56.767Z,11.57
2018-05-19T00:48:49.692Z,11.54
2018-05-19T00:49:49.689Z,11.47
2018-05-19T00:51:42.596Z,11.49
2018-05-19T00:52:42.612Z,11.44
2018-05-19T00:54:35.537Z,11.44
2018-05-19T00:55:35.540Z,11.42
2018-05-19T00:57:28.463Z,11.49
2018-05-19T00:58:28.463Z,11.47
2018-05-19T01:00:21.862Z,11.46
2018-05-19T01:01:21.880Z,11.40
2018-05-19T01:03:14.806Z,11.47
2018-05-19T01:04:14.807Z,11.37
2018-05-19T01:06:09.204Z,11.42
2018-05-19T01:07:09.221Z,11.39
2018-05-19T01:09:02.152Z,11.39
2018-05-19T01:10:02.149Z,11.37
2018-05-19T01:11:58.048Z,11.36
2018-05-19T01:12:58.068Z,11.24
2018-05-19T01:14:51.483Z,11.32
2018-05-19T01:15:51.497Z,11.36
2018-05-19T01:17:44.902Z,11.22
2018-05-19T01:18:44.904Z,11.27
2018-05-19T01:20:38.368Z,11.19
2018-05-19T01:21:38.380Z,11.21
2018-05-19T01:23:31.893Z,11.19
2018-05-19T01:24:31.892Z,11.15
2018-05-19T01:26:24.816Z,11.06
2018-05-19T01:27:24.837Z,10.88
2018-05-19T01:29:20.398Z,10.84
2018-05-19T01:30:20.430Z,10.78
2018-05-19T01:32:13.341Z,10.79
2018-05-19T01:33:13.300Z,10.74
2018-05-19T01:35:06.256Z,10.70
2018-05-19T01:36:06.255Z,10.67
2018-05-19T01:37:59.725Z,10.61
2018-05-19T01:38:59.721Z,10.67
2018-05-19T01:40:53.209Z,10.66
2018-05-19T01:41:53.198Z,10.59
2018-05-19T01:43:46.652Z,10.59
2018-05-19T01:44:46.654Z,10.61
2018-05-19T01:46:39.588Z,10.56
2018-05-19T01:47:39.607Z,10.61
2018-05-19T01:49:32.563Z,10.55
2018-05-19T01:50:32.560Z,10.64
2018-05-19T01:52:26.010Z,10.60
2018-05-19T01:53:26.029Z,10.53
2018-05-19T01:55:20.516Z,10.41
2018-05-19T01:56:20.518Z,10.34
2018-05-19T01:58:13.987Z,10.36
2018-05-19T01:59:13.984Z,10.25
2018-05-19T02:01:06.920Z,10.33
2018-05-19T02:02:06.938Z,10.25
2018-05-19T02:03:59.894Z,10.23
2018-05-19T02:04:59.893Z,10.12
2018-05-19T02:06:52.829Z,10.08
2018-05-19T02:07:52.851Z,10.04
2018-05-19T02:09:47.337Z,10.01
2018-05-19T02:10:47.336Z,9.96
2018-05-19T02:12:40.276Z,9.96
2018-05-19T02:13:40.361Z,9.94
2018-05-19T02:15:33.246Z,9.87
2018-05-19T02:16:33.245Z,9.99
2018-05-19T02:18:26.198Z,9.89
2018-05-19T02:19:26.202Z,9.94
2018-05-19T02:21:20.669Z,9.97
2018-05-19T02:22:20.688Z,9.84
2018-05-19T02:24:15.183Z,9.75
2018-05-19T02:25:15.183Z,9.79
2018-05-19T02:27:08.638Z,9.79
2018-05-19T02:28:08.643Z,9.83
2018-05-19T02:30:02.117Z,9.86
2018-05-19T02:31:02.110Z,9.78
2018-05-19T02:32:55.076Z,9.78
2018-05-19T02:34:02.258Z,9.75
2018-05-19T02:35:56.744Z,9.81
2018-05-19T02:36:56.745Z,9.81
2018-05-19T02:38:51.253Z,9.84
2018-05-19T02:39:44.048Z,9.78
2018-05-19T02:41:36.980Z,9.83
2018-05-19T02:42:36.999Z,9.75
2018-05-19T02:44:30.465Z,9.79
2018-05-19T02:45:30.466Z,9.84
2018-05-19T02:47:23.911Z,9.75
2018-05-19T02:48:23.932Z,9.83
2018-05-19T02:50:16.890Z,9.79
2018-05-19T02:51:16.886Z,9.79
2018-05-19T02:53:09.846Z,9.87
2018-05-19T02:54:09.845Z,9.96
2018-05-19T02:56:03.291Z,9.96
2018-05-19T02:57:03.307Z,9.96
2018-05-19T02:58:56.259Z,9.94
2018-05-19T02:59:56.259Z,10.02
2018-05-19T03:01:49.197Z,10.02
2018-05-19T03:02:49.220Z,10.02
2018-05-19T03:04:42.172Z,10.11
2018-05-19T03:05:42.171Z,10.07
2018-05-19T03:07:35.102Z,10.14
2018-05-19T03:08:35.123Z,10.11
2018-05-19T03:10:28.588Z,10.11
2018-05-19T03:11:28.592Z,10.26
2018-05-19T03:13:21.542Z,10.20
2018-05-19T03:14:21.542Z,10.18
2018-05-19T03:16:16.018Z,10.26
2018-05-19T03:17:16.125Z,10.18
2018-05-19T03:19:10.524Z,10.23
2018-05-19T03:20:10.523Z,10.23
2018-05-19T03:22:03.462Z,10.34
2018-05-19T03:23:03.478Z,10.27
2018-05-19T03:24:56.971Z,10.32
2018-05-19T03:25:56.946Z,10.30
2018-05-19T03:28:07.966Z,10.27
2018-05-19T03:29:07.486Z,10.27
2018-05-19T03:30:53.428Z,10.27
2018-05-19T03:31:53.427Z,10.40
2018-05-19T03:33:46.341Z,10.44
2018-05-19T03:34:46.341Z,10.48
2018-05-19T03:36:39.409Z,10.61
2018-05-19T03:37:39.427Z,10.55
2018-05-19T03:39:32.353Z,10.59
2018-05-19T03:40:32.346Z,10.60
2018-05-19T03:42:25.418Z,10.48
2018-05-19T03:43:25.435Z,10.48
2018-05-19T03:45:18.498Z,10.59
2018-05-19T03:46:18.494Z,10.59
2018-05-19T03:48:11.407Z,10.56
2018-05-19T03:49:11.414Z,10.55
2018-05-19T03:51:04.337Z,10.61
2018-05-19T03:52:04.333Z,10.53
2018-05-19T03:53:57.725Z,10.59
2018-05-19T03:54:57.655Z,10.68
2018-05-19T03:56:50.559Z,10.61
2018-05-19T03:57:50.577Z,10.64
2018-05-19T03:59:43.674Z,10.60
2018-05-19T04:00:43.675Z,10.66
2018-05-19T04:02:36.716Z,10.67
2018-05-19T04:03:36.730Z,10.74
2018-05-19T04:05:29.794Z,10.63
2018-05-19T04:06:29.794Z,10.74
2018-05-19T04:08:22.835Z,10.76
2018-05-19T04:09:22.853Z,10.70
2018-05-19T04:11:16.008Z,10.86
2018-05-19T04:12:16.011Z,10.92
2018-05-19T04:14:09.006Z,11.00
2018-05-19T04:15:08.926Z,10.91
2018-05-19T04:17:02.320Z,11.10
2018-05-19T04:18:02.343Z,11.15
2018-05-19T04:19:55.261Z,11.07
2018-05-19T04:20:55.349Z,11.00
2018-05-19T04:22:48.158Z,10.97
2018-05-19T04:23:48.177Z,11.04
2018-05-19T04:25:41.097Z,10.92
2018-05-19T04:26:41.094Z,10.86
2018-05-19T04:28:33.995Z,10.79
2018-05-19T04:29:34.011Z,10.82
2018-05-19T04:31:27.093Z,10.79
2018-05-19T04:32:27.091Z,10.78
2018-05-19T04:34:20.151Z,10.76
2018-05-19T04:35:20.147Z,10.60
2018-05-19T04:37:13.285Z,10.64
2018-05-19T04:38:13.304Z,10.64
2018-05-19T04:40:06.363Z,10.70
2018-05-19T04:41:06.363Z,10.79
2018-05-19T04:42:59.822Z,10.84
2018-05-19T04:43:59.782Z,10.92
2018-05-19T04:45:52.699Z,11.07
2018-05-19T04:46:52.698Z,11.07
2018-05-19T04:48:45.832Z,11.25
2018-05-19T04:49:45.836Z,11.42
2018-05-19T04:51:38.761Z,11.49
2018-05-19T04:52:38.759Z,11.46
2018-05-19T04:54:31.680Z,11.67
2018-05-19T04:55:31.680Z,11.78
2018-05-19T04:57:25.078Z,11.90
2018-05-19T04:58:25.097Z,11.91
2018-05-19T05:00:25.633Z,11.86
2018-05-19T05:01:25.138Z,11.82
2018-05-19T05:03:10.929Z,11.90
2018-05-19T05:04:11.039Z,12.02
2018-05-19T05:06:03.920Z,12.07
2018-05-19T05:07:03.919Z,12.04
2018-05-19T05:08:58.332Z,12.04
2018-05-19T05:09:58.349Z,12.02
2018-05-19T05:11:51.814Z,11.94
2018-05-19T05:12:51.817Z,11.95
2018-05-19T05:14:46.305Z,12.09
2018-05-19T05:15:46.307Z,12.12
2018-05-19T05:17:39.751Z,12.17
2018-05-19T05:18:39.770Z,12.13
2018-05-19T05:20:33.241Z,12.29
2018-05-19T05:21:33.240Z,12.23
2018-05-19T05:23:26.683Z,12.28
2018-05-19T05:24:26.704Z,12.31
2018-05-19T05:26:20.172Z,12.29
2018-05-19T05:27:20.171Z,12.24
2018-05-19T05:29:13.614Z,12.29
2018-05-19T05:30:13.638Z,12.23
2018-05-19T05:32:24.214Z,12.28
2018-05-19T05:33:24.217Z,12.27
2018-05-19T05:35:17.670Z,12.24
2018-05-19T05:36:17.676Z,12.34
2018-05-19T05:38:10.673Z,12.49
2018-05-19T05:39:10.624Z,12.64
2018-05-19T05:41:04.086Z,12.75
2018-05-19T05:42:04.089Z,12.82
2018-05-19T05:43:57.536Z,12.97
2018-05-19T05:44:57.558Z,12.92
2018-05-19T05:46:50.506Z,13.05
2018-05-19T05:47:50.513Z,13.00
2018-05-19T05:49:43.475Z,13.25
2018-05-19T05:50:43.464Z,13.19
2018-05-19T05:52:37.933Z,13.42
2018-05-19T05:53:37.957Z,13.44
2018-05-19T05:55:31.419Z,13.55
2018-05-19T05:56:31.421Z,13.60
2018-05-19T05:58:25.888Z,13.66
2018-05-19T05:59:25.910Z,13.73
2018-05-19T06:01:19.333Z,13.66
2018-05-19T06:02:19.337Z,13.54
2018-05-19T06:04:12.820Z,13.62
2018-05-19T06:05:12.847Z,13.60
2018-05-19T06:07:05.800Z,13.59
2018-05-19T06:08:05.801Z,13.70
2018-05-19T06:09:59.265Z,13.79
2018-05-19T06:10:59.264Z,13.69
2018-05-19T06:12:52.707Z,13.69
2018-05-19T06:13:52.728Z,13.75
2018-05-19T06:15:46.195Z,13.89
2018-05-19T06:16:46.202Z,14.07
2018-05-19T06:18:39.161Z,14.20
2018-05-19T06:19:39.150Z,14.32
2018-05-19T06:21:32.103Z,14.42
2018-05-19T06:22:32.105Z,14.51
2018-05-19T06:24:25.551Z,14.52
2018-05-19T06:25:25.572Z,14.58
2018-05-19T06:27:19.034Z,14.65
2018-05-19T06:28:19.040Z,14.68
2018-05-19T06:30:11.993Z,14.65
2018-05-19T06:31:11.997Z,14.72
2018-05-19T06:33:07.996Z,14.72
2018-05-19T06:34:08.020Z,14.64
2018-05-19T06:36:01.483Z,14.43
2018-05-19T06:37:01.486Z,14.32
2018-05-19T06:38:54.928Z,14.51
2018-05-19T06:39:54.953Z,14.58
2018-05-19T06:41:47.905Z,14.70
2018-05-19T06:42:47.906Z,14.65
2018-05-19T06:44:40.842Z,14.78
2018-05-19T06:45:40.862Z,14.94
2018-05-19T06:47:33.809Z,15.17
2018-05-19T06:48:33.814Z,15.23
2018-05-19T06:50:27.274Z,15.34
2018-05-19T06:51:27.283Z,15.28
2018-05-19T06:53:20.213Z,15.41
2018-05-19T06:54:20.234Z,15.50
2018-05-19T06:56:14.719Z,15.59
2018-05-19T06:57:14.812Z,15.69
2018-05-19T06:59:07.656Z,15.67
2018-05-19T07:00:07.679Z,15.62
2018-05-19T07:02:01.147Z,15.71
2018-05-19T07:03:01.149Z,15.64
2018-05-19T07:04:55.624Z,15.69
2018-05-19T07:05:55.636Z,15.78
2018-05-19T07:07:50.125Z,15.67
2018-05-19T07:08:50.131Z,15.69
2018-05-19T07:10:43.081Z,15.83
2018-05-19T07:11:43.082Z,15.78
2018-05-19T07:13:35.999Z,15.71
2018-05-19T07:14:36.025Z,15.71
2018-05-19T07:16:29.447Z,15.74
2018-05-19T07:17:29.453Z,15.84
2018-05-19T07:19:22.366Z,16.05
2018-05-19T07:20:22.392Z,16.33
2018-05-19T07:22:15.324Z,16.45
2018-05-19T07:23:15.426Z,16.61
2018-05-19T07:25:08.245Z,16.79
2018-05-19T07:26:08.273Z,16.85
2018-05-19T07:28:01.210Z,16.91
2018-05-19T07:29:01.213Z,17.07
2018-05-19T07:30:54.239Z,17.07
2018-05-19T07:31:54.248Z,17.01
2018-05-19T07:33:47.185Z,17.03
2018-05-19T07:34:47.207Z,16.98
2018-05-19T07:36:40.143Z,17.01
2018-05-19T07:37:40.150Z,17.01
2018-05-19T07:39:33.062Z,17.03
2018-05-19T07:40:33.104Z,16.96
2018-05-19T07:42:26.545Z,16.61
2018-05-19T07:43:26.561Z,16.73
2018-05-19T07:45:19.466Z,16.73
2018-05-19T07:46:19.492Z,16.61
2018-05-19T07:48:12.426Z,16.64
2018-05-19T07:49:12.432Z,16.71
2018-05-19T07:51:05.360Z,16.85
2018-05-19T07:52:05.366Z,16.57
2018-05-19T07:53:58.278Z,16.67
2018-05-19T07:54:58.302Z,16.64
2018-05-19T07:56:51.313Z,16.86
2018-05-19T07:57:51.317Z,16.86
2018-05-19T07:59:44.244Z,16.82
2018-05-19T08:00:44.259Z,16.61
2018-05-19T08:02:37.196Z,16.61
2018-05-19T08:03:37.199Z,16.67
2018-05-19T08:05:30.116Z,16.98
2018-05-19T08:06:30.141Z,16.98
2018-05-19T08:08:23.075Z,17.03
2018-05-19T08:09:23.079Z,16.88
2018-05-19T08:11:16.014Z,16.98
2018-05-19T08:12:16.022Z,17.03
2018-05-19T08:14:08.936Z,17.06
2018-05-19T08:15:08.961Z,17.12
2018-05-19T08:17:02.890Z,17.15
2018-05-19T08:18:02.896Z,17.25
2018-05-19T08:19:56.302Z,17.40
2018-05-19T08:20:56.328Z,17.64
2018-05-19T08:22:49.263Z,17.74
2018-05-19T08:23:49.270Z,17.75
2018-05-19T08:25:42.188Z,17.96
2018-05-19T08:26:42.213Z,18.15
2018-05-19T08:28:35.232Z,18.42
2018-05-19T08:29:35.154Z,18.45
2018-05-19T08:31:28.590Z,18.37
2018-05-19T08:32:28.598Z,18.27
2018-05-19T08:34:21.597Z,17.77
2018-05-19T08:35:21.620Z,17.70
2018-05-19T08:37:14.568Z,17.78
2018-05-19T08:38:14.575Z,17.86
2018-05-19T08:40:07.505Z,17.95
2018-05-19T08:41:07.538Z,17.81
2018-05-19T08:43:02.011Z,17.77
2018-05-19T08:44:02.019Z,17.79
2018-05-19T08:45:54.945Z,18.00
2018-05-19T08:46:54.971Z,18.27
2018-05-19T08:48:47.918Z,18.57
2018-05-19T08:49:47.925Z,18.69
2018-05-19T08:51:40.873Z,18.58
2018-05-19T08:52:40.881Z,18.70
2018-05-19T08:54:33.813Z,18.91
2018-05-19T08:55:33.836Z,18.81
2018-05-19T08:57:26.784Z,19.22
2018-05-19T08:58:26.790Z,19.14
2018-05-19T09:00:20.784Z,19.26
2018-05-19T09:01:20.810Z,19.31
2018-05-19T09:03:13.821Z,19.19
2018-05-19T09:04:13.833Z,19.10
2018-05-19T09:06:06.755Z,18.69
2018-05-19T09:07:06.779Z,18.58
2018-05-19T09:08:59.715Z,18.73
2018-05-19T09:09:59.728Z,18.87
2018-05-19T09:11:52.678Z,18.99
2018-05-19T09:12:52.773Z,19.06
2018-05-19T09:14:45.620Z,19.29
2018-05-19T09:15:45.642Z,19.37
2018-05-19T09:17:38.588Z,19.50
2018-05-19T09:18:38.596Z,19.54
2018-05-19T09:20:31.526Z,19.63
2018-05-19T09:21:31.550Z,19.69
2018-05-19T09:23:25.031Z,19.69
2018-05-19T09:24:25.018Z,19.65
2018-05-19T09:26:17.944Z,19.78
2018-05-19T09:27:17.971Z,19.80
2018-05-19T09:29:10.916Z,19.69
2018-05-19T09:30:10.923Z,19.48
2018-05-19T09:32:03.869Z,19.26
2018-05-19T09:33:03.885Z,19.29
2018-05-19T09:34:56.911Z,19.31
2018-05-19T09:35:56.938Z,19.31
2018-05-19T09:37:49.982Z,19.26
2018-05-19T09:38:49.994Z,19.26
2018-05-19T09:40:42.969Z,19.26
2018-05-19T09:41:42.946Z,19.32
2018-05-19T09:43:36.000Z,19.51
2018-05-19T09:44:36.003Z,19.58
2018-05-19T09:46:28.930Z,19.56
2018-05-19T09:47:28.974Z,19.56
2018-05-19T09:49:22.004Z,19.47
2018-05-19T09:50:22.010Z,19.54
2018-05-19T09:52:14.959Z,19.55
2018-05-19T09:53:14.972Z,19.25
2018-05-19T09:55:07.893Z,18.94
2018-05-19T09:56:07.922Z,18.99
2018-05-19T09:58:01.381Z,19.00
2018-05-19T09:59:01.390Z,19.10
2018-05-19T10:00:54.317Z,19.22
2018-05-19T10:01:54.343Z,19.08
2018-05-19T10:03:47.433Z,19.19
2018-05-19T10:04:47.470Z,19.22
2018-05-19T10:06:40.326Z,19.02
2018-05-19T10:07:40.351Z,19.23
2018-05-19T10:09:33.356Z,19.26
2018-05-19T10:10:33.309Z,19.33
2018-05-19T10:12:26.251Z,19.33
2018-05-19T10:13:26.266Z,19.33
2018-05-19T10:15:19.187Z,19.31
2018-05-19T10:16:19.216Z,19.22
2018-05-19T10:18:12.150Z,19.14
2018-05-19T10:19:12.161Z,19.18
2018-05-19T10:21:05.099Z,19.31
2018-05-19T10:22:05.124Z,19.21
2018-05-19T10:23:58.068Z,19.11
2018-05-19T10:24:58.077Z,19.21
2018-05-19T10:26:51.005Z,19.11
2018-05-19T10:27:51.031Z,18.99
2018-05-19T10:29:43.981Z,19.07
2018-05-19T10:30:43.988Z,19.00
2018-05-19T10:32:36.962Z,19.23
2018-05-19T10:33:36.940Z,19.31
2018-05-19T10:35:29.938Z,19.63
2018-05-19T10:36:29.895Z,19.83
2018-05-19T10:38:22.845Z,20.05
2018-05-19T10:39:22.848Z,20.23
2018-05-19T10:41:15.774Z,20.18
2018-05-19T10:42:15.803Z,20.29
2018-05-19T10:44:08.759Z,20.26
2018-05-19T10:45:08.759Z,20.39
2018-05-19T10:47:02.196Z,20.57
2018-05-19T10:48:02.226Z,20.58
2018-05-19T10:49:55.271Z,20.70
2018-05-19T10:50:55.279Z,20.77
2018-05-19T10:52:48.328Z,21.03
2018-05-19T10:53:48.337Z,21.24
2018-05-19T10:55:41.388Z,21.17
2018-05-19T10:56:41.394Z,21.21
2018-05-19T10:58:34.440Z,21.27
2018-05-19T10:59:34.455Z,21.22
2018-05-19T11:01:27.376Z,21.12
2018-05-19T11:02:27.403Z,21.06
2018-05-19T11:04:20.457Z,20.89
2018-05-19T11:05:20.466Z,20.85
2018-05-19T11:07:14.818Z,20.89
2018-05-19T11:08:14.848Z,20.91
2018-05-19T11:10:07.793Z,21.06
2018-05-19T11:11:07.803Z,21.17
2018-05-19T11:13:00.851Z,21.28
2018-05-19T11:14:00.856Z,21.34
2018-05-19T11:15:53.887Z,21.19
2018-05-19T11:16:53.915Z,21.16
2018-05-19T11:18:46.988Z,21.16
2018-05-19T11:19:46.971Z,20.92
2018-05-19T11:21:40.452Z,20.84
2018-05-19T11:22:40.483Z,20.70
2018-05-19T11:24:33.488Z,20.41
2018-05-19T11:25:33.498Z,20.48
2018-05-19T11:27:26.521Z,20.74
2018-05-19T11:28:26.556Z,20.69
2018-05-19T11:30:19.602Z,20.64
2018-05-19T11:31:19.607Z,20.61
2018-05-19T11:33:12.654Z,20.50
2018-05-19T11:34:12.662Z,20.57
2018-05-19T11:36:05.692Z,20.70
2018-05-19T11:37:14.435Z,20.73
2018-05-19T11:38:58.769Z,20.89
2018-05-19T11:39:58.780Z,20.89
2018-05-19T11:41:51.807Z,21.16
2018-05-19T11:42:51.836Z,21.24
2018-05-19T11:44:44.884Z,21.28
2018-05-19T11:45:44.894Z,21.47
2018-05-19T11:47:38.329Z,21.40
2018-05-19T11:48:38.398Z,21.34
2018-05-19T11:50:31.418Z,21.25
2018-05-19T11:51:31.420Z,21.14
2018-05-19T11:53:24.459Z,20.84
2018-05-19T11:54:24.471Z,20.58
2018-05-19T11:56:17.907Z,20.32
2018-05-19T11:57:17.938Z,20.41
2018-05-19T11:59:10.985Z,20.14
2018-05-19T12:00:10.992Z,20.16
2018-05-19T12:02:04.453Z,20.17
2018-05-19T12:03:04.489Z,20.31
2018-05-19T12:04:58.021Z,20.29
2018-05-19T12:05:58.031Z,20.41
2018-05-19T12:07:51.054Z,20.39
2018-05-19T12:08:51.097Z,20.38
2018-05-19T12:10:44.132Z,20.26
2018-05-19T12:11:44.141Z,20.21
2018-05-19T12:13:37.189Z,20.43
2018-05-19T12:14:37.196Z,20.39
2018-05-19T12:16:30.224Z,20.52
2018-05-19T12:17:30.254Z,20.51
2018-05-19T12:19:23.198Z,20.58
2018-05-19T12:20:23.216Z,20.76
2018-05-19T12:22:16.292Z,20.92
2018-05-19T12:23:16.263Z,20.92
2018-05-19T12:25:09.311Z,21.06
2018-05-19T12:26:09.366Z,21.24
2018-05-19T12:28:02.348Z,20.98
2018-05-19T12:29:02.496Z,20.95
2018-05-19T12:30:55.525Z,20.89
2018-05-19T12:31:55.432Z,20.99
2018-05-19T12:33:48.887Z,20.88
2018-05-19T12:34:48.898Z,20.99
2018-05-19T12:36:41.931Z,21.19
2018-05-19T12:37:41.954Z,21.27
2018-05-19T12:39:35.002Z,21.24
2018-05-19T12:40:35.010Z,21.21
2018-05-19T12:42:27.982Z,21.10
2018-05-19T12:43:27.959Z,21.06
2018-05-19T12:45:24.090Z,20.87
2018-05-19T12:46:23.990Z,20.70
2018-05-19T12:48:17.076Z,20.85
2018-05-19T12:49:17.048Z,21.04
2018-05-19T12:51:13.066Z,21.19
2018-05-19T12:52:13.075Z,21.19
2018-05-19T12:54:06.025Z,20.98
2018-05-19T12:55:06.029Z,20.97
2018-05-19T12:56:59.057Z,21.04
2018-05-19T12:57:59.090Z,20.99
2018-05-19T12:59:52.184Z,20.79
2018-05-19T13:00:52.141Z,20.59
2018-05-19T13:02:45.169Z,20.47
2018-05-19T13:03:45.197Z,20.64
2018-05-19T13:05:38.248Z,20.79
2018-05-19T13:06:38.256Z,20.67
2018-05-19T13:08:31.288Z,20.85
2018-05-19T13:09:31.373Z,20.85
2018-05-19T13:11:25.327Z,20.97
2018-05-19T13:12:25.309Z,20.95
2018-05-19T13:14:18.377Z,20.99
2018-05-19T13:15:18.422Z,21.03
2018-05-19T13:17:11.270Z,20.95
2018-05-19T13:18:11.308Z,20.98
2018-05-19T13:20:04.247Z,21.01
2018-05-19T13:21:04.262Z,21.09
2018-05-19T13:22:57.172Z,21.29
2018-05-19T13:23:57.198Z,21.28
2018-05-19T13:25:50.149Z,21.49
2018-05-19T13:26:50.223Z,21.61
2018-05-19T13:28:43.100Z,21.75
2018-05-19T13:29:43.101Z,21.83
2018-05-19T13:31:36.038Z,21.83
2018-05-19T13:32:36.045Z,21.86
2018-05-19T13:34:29.018Z,21.90
2018-05-19T13:35:29.065Z,21.96
2018-05-19T13:37:22.054Z,21.90
2018-05-19T13:38:22.082Z,21.86
2018-05-19T13:40:15.131Z,21.68
2018-05-19T13:41:15.138Z,21.56
2018-05-19T13:43:08.222Z,21.56
2018-05-19T13:44:08.198Z,21.54
2018-05-19T13:46:01.239Z,21.65
2018-05-19T13:47:01.253Z,21.67
2018-05-19T13:48:54.277Z,21.91
2018-05-19T13:49:54.313Z,21.88
2018-05-19T13:51:47.771Z,21.77
2018-05-19T13:52:47.777Z,21.82
2018-05-19T13:54:40.719Z,21.74
2018-05-19T13:55:40.772Z,21.69
2018-05-19T13:57:34.146Z,21.77
2018-05-19T13:58:34.225Z,21.88
2018-05-19T14:00:27.620Z,22.00
2018-05-19T14:01:27.621Z,22.00
2018-05-19T14:03:20.545Z,22.15
2018-05-19T14:04:20.574Z,22.27
2018-05-19T14:06:13.572Z,22.31
2018-05-19T14:07:13.522Z,22.30
2018-05-19T14:09:06.444Z,22.28
2018-05-19T14:10:06.515Z,22.22
2018-05-19T14:11:59.419Z,22.14
2018-05-19T14:12:59.428Z,22.10
2018-05-19T14:14:52.379Z,22.14
2018-05-19T14:15:52.399Z,22.30
2018-05-19T14:17:45.310Z,22.22
2018-05-19T14:18:45.335Z,22.27
2018-05-19T14:20:38.277Z,22.21
2018-05-19T14:21:38.288Z,22.28
2018-05-19T14:23:31.210Z,22.12
2018-05-19T14:24:31.236Z,22.10
2018-05-19T14:26:24.239Z,22.00
2018-05-19T14:27:24.257Z,22.00
2018-05-19T14:29:17.275Z,21.88
2018-05-19T14:30:17.304Z,21.69
2018-05-19T14:32:10.399Z,21.64
2018-05-19T14:33:10.407Z,21.77
2018-05-19T14:35:03.407Z,21.65
2018-05-19T14:36:03.416Z,21.27
2018-05-19T14:37:59.414Z,21.53
2018-05-19T14:38:59.440Z,21.54
2018-05-19T14:40:52.492Z,21.53
2018-05-19T14:41:52.497Z,21.62
2018-05-19T14:43:45.526Z,21.67
2018-05-19T14:44:45.554Z,21.74
2018-05-19T14:46:39.012Z,21.75
2018-05-19T14:47:39.022Z,21.96
2018-05-19T14:49:32.048Z,22.00
2018-05-19T14:50:32.076Z,21.92
2018-05-19T14:52:25.127Z,21.77
2018-05-19T14:53:25.171Z,21.83
2018-05-19T14:55:18.182Z,21.75
2018-05-19T14:56:18.191Z,21.71
2018-05-19T14:58:11.220Z,21.47
2018-05-19T14:59:11.248Z,21.58
2018-05-19T15:01:04.703Z,21.58
2018-05-19T15:02:04.713Z,21.67
2018-05-19T15:03:57.741Z,21.68
2018-05-19T15:04:57.769Z,21.71
2018-05-19T15:06:50.815Z,21.79
2018-05-19T15:07:50.826Z,21.77
2018-05-19T15:09:43.853Z,21.94
2018-05-19T15:10:43.883Z,21.99
2018-05-19T15:12:36.930Z,21.86
2018-05-19T15:13:36.939Z,21.90
2018-05-19T15:15:30.405Z,21.88
2018-05-19T15:16:30.412Z,21.75
2018-05-19T15:18:23.435Z,21.58
2018-05-19T15:19:23.462Z,21.64
2018-05-19T15:21:16.917Z,21.72
2018-05-19T15:22:16.930Z,21.74
2018-05-19T15:24:10.369Z,21.68
2018-05-19T15:25:10.395Z,21.62
2018-05-19T15:27:03.439Z,21.65
2018-05-19T15:28:03.450Z,21.58
2018-05-19T15:29:56.480Z,21.40
2018-05-19T15:30:56.507Z,21.47
2018-05-19T15:32:49.553Z,21.50
2018-05-19T15:33:49.563Z,21.59
2018-05-19T15:35:43.023Z,21.47
2018-05-19T15:36:43.034Z,21.37
2018-05-19T15:38:36.161Z,21.49
2018-05-19T15:39:36.084Z,21.38
2018-05-19T15:41:29.543Z,21.42
2018-05-19T15:42:29.551Z,21.44
2018-05-19T15:44:22.480Z,21.42
2018-05-19T15:45:22.509Z,21.50
2018-05-19T15:47:15.551Z,21.49
2018-05-19T15:48:15.561Z,21.54
2018-05-19T15:50:08.495Z,21.44
2018-05-19T15:51:08.516Z,21.27
2018-05-19T15:53:03.004Z,21.19
2018-05-19T15:54:03.009Z,21.27
2018-05-19T15:55:56.058Z,21.25
2018-05-19T15:56:56.068Z,21.28
2018-05-19T15:58:49.092Z,20.98
2018-05-19T15:59:49.122Z,20.92
2018-05-19T16:01:42.170Z,21.04
2018-05-19T16:02:42.180Z,21.04
2018-05-19T16:04:35.619Z,21.16
2018-05-19T16:05:35.646Z,21.21
2018-05-19T16:07:28.590Z,21.16
2018-05-19T16:08:28.599Z,21.27
2018-05-19T16:10:21.629Z,21.42
2018-05-19T16:11:21.657Z,21.44
2018-05-19T16:13:14.705Z,21.54
2018-05-19T16:14:14.714Z,21.54
2018-05-19T16:16:08.171Z,21.59
2018-05-19T16:17:08.178Z,21.52
2018-05-19T16:19:01.206Z,21.62
2018-05-19T16:20:01.235Z,21.69
2018-05-19T16:21:54.279Z,21.59
2018-05-19T16:22:54.294Z,21.56
2018-05-19T16:24:47.320Z,21.38
2018-05-19T16:25:47.348Z,21.38
2018-05-19T16:27:40.394Z,21.21
2018-05-19T16:28:40.485Z,21.07
2018-05-19T16:30:33.430Z,21.03
2018-05-19T16:31:33.459Z,20.97
2018-05-19T16:33:26.506Z,20.72
2018-05-19T16:34:26.521Z,20.58
2018-05-19T16:36:19.567Z,20.58
2018-05-19T16:37:19.576Z,20.57
2018-05-19T16:39:14.033Z,20.52
2018-05-19T16:40:14.066Z,20.52
2018-05-19T16:42:07.000Z,20.51
2018-05-19T16:43:07.007Z,20.57
2018-05-19T16:44:59.943Z,20.57
2018-05-19T16:45:59.973Z,20.47
2018-05-19T16:47:53.016Z,20.51
2018-05-19T16:48:53.028Z,20.43
2018-05-19T16:50:45.954Z,20.31
2018-05-19T16:51:45.985Z,20.29
2018-05-19T16:53:38.925Z,20.20
2018-05-19T16:54:38.993Z,20.17
2018-05-19T16:56:32.395Z,20.16
2018-05-19T16:57:32.400Z,20.14
2018-05-19T16:59:25.327Z,20.05
2018-05-19T17:00:25.357Z,20.01
2018-05-19T17:02:18.814Z,19.98
2018-05-19T17:03:18.821Z,19.98
2018-05-19T17:05:11.748Z,19.95
2018-05-19T17:06:11.773Z,19.88
2018-05-19T17:08:04.722Z,19.86
2018-05-19T17:09:04.730Z,19.86
2018-05-19T17:10:57.655Z,19.88
2018-05-19T17:11:57.684Z,19.88
2018-05-19T17:13:50.625Z,19.96
2018-05-19T17:14:50.637Z,19.98
2018-05-19T17:16:43.583Z,19.98
2018-05-19T17:17:43.595Z,19.99
2018-05-19T17:19:36.724Z,20.10
2018-05-19T17:20:36.750Z,20.10
2018-05-19T17:22:29.696Z,20.14
2018-05-19T17:23:29.706Z,20.26
2018-05-19T17:25:22.629Z,20.23
2018-05-19T17:26:22.656Z,20.13
2018-05-19T17:28:15.604Z,20.13
2018-05-19T17:29:15.613Z,20.16
2018-05-19T17:31:08.546Z,20.26
2018-05-19T17:32:08.568Z,20.16
2018-05-19T17:34:01.512Z,20.31
2018-05-19T17:35:01.514Z,20.16
2018-05-19T17:36:54.467Z,20.24
2018-05-19T17:37:54.473Z,20.28
2018-05-19T17:39:47.915Z,20.24
2018-05-19T17:40:47.942Z,20.26
2018-05-19T17:42:40.887Z,20.28
2018-05-19T17:43:40.894Z,20.39
2018-05-19T17:45:33.824Z,20.38
2018-05-19T17:46:33.847Z,20.47
2018-05-19T17:48:27.818Z,20.57
2018-05-19T17:49:27.825Z,20.69
2018-05-19T17:51:20.759Z,20.79
2018-05-19T17:52:20.785Z,20.95
2018-05-19T17:54:13.830Z,21.21
2018-05-19T17:55:13.845Z,21.27
2018-05-19T17:57:06.787Z,21.56
2018-05-19T17:58:06.792Z,21.58
2018-05-19T17:59:59.826Z,21.82
2018-05-19T18:00:59.853Z,21.80
2018-05-19T18:02:52.897Z,21.65
2018-05-19T18:03:52.906Z,21.64
2018-05-19T18:05:45.937Z,21.68
2018-05-19T18:06:45.964Z,21.77
2018-05-19T18:08:39.010Z,21.64
2018-05-19T18:09:39.015Z,21.46
2018-05-19T18:11:31.947Z,21.42
2018-05-19T18:12:31.970Z,21.21
2018-05-19T18:14:24.917Z,20.79
2018-05-19T18:15:24.929Z,20.55
2018-05-19T18:17:17.979Z,20.51
2018-05-19T18:18:17.985Z,20.47
2018-05-19T18:20:10.913Z,20.36
2018-05-19T18:21:10.939Z,20.31
2018-05-19T18:23:03.886Z,20.31
2018-05-19T18:24:03.887Z,20.28
2018-05-19T18:25:56.815Z,20.17
2018-05-19T18:26:56.844Z,20.10
2018-05-19T18:28:49.790Z,19.86
2018-05-19T18:29:49.861Z,19.80
2018-05-19T18:31:42.724Z,19.74
2018-05-19T18:32:42.750Z,19.74
2018-05-19T18:34:36.214Z,19.62
2018-05-19T18:35:36.241Z,19.54
2018-05-19T18:37:29.674Z,19.48